createdAt,value
2016-07-10T00:00:54.609Z,82.08
2016-07-10T00:01:55.209Z,81.83
2016-07-10T00:02:54.591Z,81.88
2016-07-10T00:03:54.584Z,81.79
2016-07-10T00:04:54.575Z,81.6
2016-07-10T00:05:54.563Z,81.88
2016-07-10T00:06:54.554Z,81.7
2016-07-10T00:07:54.543Z,81.79
2016-07-10T00:08:55.148Z,81.98
2016-07-10T00:09:55.142Z,81.88
2016-07-10T00:10:54.515Z,82.37
2016-07-10T00:11:55.124Z,82.17
2016-07-10T00:12:55.107Z,82.37
2016-07-10T00:13:55.100Z,81.98
2016-07-10T00:14:55.094Z,82.37
2016-07-10T00:15:54.475Z,82.02
2016-07-10T00:16:54.465Z,82.08
2016-07-10T00:17:54.452Z,82.37
2016-07-10T00:18:55.058Z,82.08
2016-07-10T00:19:54.432Z,82.08
2016-07-10T00:20:54.423Z,82.37
2016-07-10T00:21:54.629Z,81.7
2016-07-10T00:22:54.410Z,82.65
2016-07-10T00:23:54.396Z,82.65
2016-07-10T00:24:54.388Z,82.46
2016-07-10T00:25:54.379Z,82.08
2016-07-10T00:26:54.374Z,82.27
2016-07-10T00:27:54.358Z,82.85
2016-07-10T00:28:54.353Z,82.37
2016-07-10T00:29:54.354Z,81.98
2016-07-10T00:30:54.335Z,82.65
2016-07-10T00:31:54.940Z,82.46
2016-07-10T00:32:54.318Z,82.46
2016-07-10T00:33:54.306Z,82.46
2016-07-10T00:34:54.298Z,82.56
2016-07-10T00:35:54.950Z,82.56
2016-07-10T00:36:54.278Z,82.46
2016-07-10T00:37:54.269Z,82.75
2016-07-10T00:38:54.261Z,82.37
2016-07-10T00:39:54.250Z,82.17
2016-07-10T00:40:54.870Z,82.08
2016-07-10T00:41:54.233Z,82.46
2016-07-10T00:42:54.223Z,82.37
2016-07-10T00:43:54.214Z,82.37
2016-07-10T00:44:54.205Z,83.14
2016-07-10T00:45:54.196Z,82.46
2016-07-10T00:46:54.185Z,82.27
2016-07-10T00:47:54.176Z,83.33
2016-07-10T00:48:54.786Z,82.27
2016-07-10T00:49:54.162Z,82.46
2016-07-10T00:50:54.758Z,82.65
2016-07-10T00:51:54.144Z,82.27
2016-07-10T00:52:54.130Z,82.27
2016-07-10T00:53:54.119Z,82.94
2016-07-10T00:54:54.111Z,83.23
2016-07-10T00:55:54.718Z,81.98
2016-07-10T00:56:54.093Z,82.37
2016-07-10T00:57:54.085Z,82.37
2016-07-10T00:58:54.079Z,82.17
2016-07-10T00:59:54.679Z,82.56
2016-07-10T01:00:54.061Z,82.46
2016-07-10T01:01:54.668Z,82.08
2016-07-10T01:02:54.041Z,82.65
2016-07-10T01:03:54.030Z,82.46
2016-07-10T01:04:54.022Z,83.04
2016-07-10T01:05:54.011Z,82.94
2016-07-10T01:06:54.003Z,83.14
2016-07-10T01:07:53.988Z,82.9
2016-07-10T01:08:53.981Z,83.39
2016-07-10T01:09:53.971Z,82.9
2016-07-10T01:10:53.965Z,83.19
2016-07-10T01:11:53.955Z,83.67
2016-07-10T01:12:54.559Z,83.58
2016-07-10T01:13:54.550Z,83.67
2016-07-10T01:14:53.926Z,84.16
2016-07-10T01:15:53.916Z,84.06
2016-07-10T01:16:53.907Z,84.06
2016-07-10T01:17:53.903Z,83.96
2016-07-10T01:18:53.889Z,84.63
2016-07-10T01:19:53.887Z,84.06
2016-07-10T01:20:53.870Z,84.4
2016-07-10T01:21:53.862Z,84.4
2016-07-10T01:22:53.853Z,84.4
2016-07-10T01:23:53.845Z,84.69
2016-07-10T01:24:53.837Z,84.88
2016-07-10T01:25:53.823Z,84.59
2016-07-10T01:26:53.816Z,84.59
2016-07-10T01:27:53.810Z,84.88
2016-07-10T01:28:53.794Z,85.07
2016-07-10T01:29:53.785Z,85.27
2016-07-10T01:30:53.786Z,84.59
2016-07-10T01:31:53.768Z,85.65
2016-07-10T01:32:53.756Z,85.65
2016-07-10T01:33:53.752Z,85.27
2016-07-10T01:34:53.738Z,85.27
2016-07-10T01:35:54.351Z,84.88
2016-07-10T01:36:53.723Z,85.55
2016-07-10T01:37:53.711Z,85.36
2016-07-10T01:38:53.703Z,85.17
2016-07-10T01:39:53.698Z,85.41
2016-07-10T01:40:53.686Z,85.51
2016-07-10T01:41:53.675Z,85.51
2016-07-10T01:42:53.662Z,85.51
2016-07-10T01:43:53.652Z,85.22
2016-07-10T01:44:53.644Z,85.71
2016-07-10T01:45:53.632Z,85.99
2016-07-10T01:46:53.629Z,85.51
2016-07-10T01:47:53.614Z,85.89
2016-07-10T01:48:53.658Z,85.41
2016-07-10T01:49:53.598Z,85.71
2016-07-10T01:50:53.589Z,85.71
2016-07-10T01:51:53.580Z,85.71
2016-07-10T01:52:53.568Z,85.99
2016-07-10T01:53:53.558Z,85.89
2016-07-10T01:54:53.548Z,86.28
2016-07-10T01:55:53.536Z,85.8
2016-07-10T01:56:53.528Z,85.61
2016-07-10T01:57:53.522Z,85.71
2016-07-10T01:58:53.509Z,85.71
2016-07-10T01:59:53.498Z,85.8
2016-07-10T02:00:53.542Z,85.89
2016-07-10T02:01:53.481Z,86.09
2016-07-10T02:02:54.087Z,85.99
2016-07-10T02:03:53.464Z,86.18
2016-07-10T02:04:54.063Z,86.47
2016-07-10T02:05:54.054Z,85.89
2016-07-10T02:06:53.433Z,85.71
2016-07-10T02:07:53.423Z,86.38
2016-07-10T02:08:53.413Z,86.38
2016-07-10T02:09:53.410Z,86.38
2016-07-10T02:10:53.394Z,86.76
2016-07-10T02:11:53.388Z,86.57
2016-07-10T02:12:53.377Z,86.76
2016-07-10T02:13:53.363Z,86.28
2016-07-10T02:14:53.356Z,86.85
2016-07-10T02:15:53.352Z,86.76
2016-07-10T02:16:53.335Z,87.34
2016-07-10T02:17:53.324Z,86.72
2016-07-10T02:18:53.317Z,86.81
2016-07-10T02:19:53.306Z,86.76
2016-07-10T02:20:53.302Z,86.91
2016-07-10T02:21:53.488Z,87.01
2016-07-10T02:22:53.276Z,87.1
2016-07-10T02:23:53.265Z,86.91
2016-07-10T02:24:53.260Z,87.01
2016-07-10T02:25:53.859Z,86.91
2016-07-10T02:26:53.238Z,86.72
2016-07-10T02:27:53.839Z,87.49
2016-07-10T02:28:53.832Z,87.19
2016-07-10T02:29:53.206Z,87.29
2016-07-10T02:30:53.809Z,87.39
2016-07-10T02:31:53.187Z,87.49
2016-07-10T02:32:53.177Z,87.49
2016-07-10T02:33:53.781Z,87.77
2016-07-10T02:34:53.160Z,87.39
2016-07-10T02:35:53.150Z,87.58
2016-07-10T02:36:53.140Z,87.96
2016-07-10T02:37:53.130Z,87.87
2016-07-10T02:38:53.118Z,87.87
2016-07-10T02:39:53.112Z,88.06
2016-07-10T02:40:53.100Z,87.77
2016-07-10T02:41:53.086Z,87.87
2016-07-10T02:42:53.078Z,87.96
2016-07-10T02:43:53.074Z,87.96
2016-07-10T02:44:53.673Z,88.06
2016-07-10T02:45:53.053Z,87.68
2016-07-10T02:46:53.039Z,87.87
2016-07-10T02:47:53.030Z,87.87
2016-07-10T02:48:53.020Z,87.68
2016-07-10T02:49:53.015Z,87.77
2016-07-10T02:50:53.007Z,87.87
2016-07-10T02:51:52.993Z,87.96
2016-07-10T02:52:52.983Z,87.96
2016-07-10T02:53:52.973Z,87.87
2016-07-10T02:54:52.961Z,87.68
2016-07-10T02:55:52.952Z,87.49
2016-07-10T02:56:52.941Z,87.49
2016-07-10T02:57:52.929Z,87.87
2016-07-10T02:58:53.544Z,88.06
2016-07-10T02:59:52.913Z,88.06
2016-07-10T03:00:52.902Z,87.82
2016-07-10T03:01:52.895Z,87.82
2016-07-10T03:02:52.882Z,88.02
2016-07-10T03:03:52.871Z,88.21
2016-07-10T03:04:52.859Z,87.73
2016-07-10T03:05:52.851Z,88.02
2016-07-10T03:06:52.845Z,88.21
2016-07-10T03:07:52.826Z,88.21
2016-07-10T03:08:52.819Z,88.49
2016-07-10T03:09:52.810Z,88.4
2016-07-10T03:10:52.802Z,88.49
2016-07-10T03:11:52.792Z,88.49
2016-07-10T03:12:52.779Z,87.92
2016-07-10T03:13:52.770Z,88.21
2016-07-10T03:14:52.760Z,87.92
2016-07-10T03:15:52.751Z,88.11
2016-07-10T03:16:52.738Z,88.02
2016-07-10T03:17:52.730Z,88.4
2016-07-10T03:18:52.717Z,88.11
2016-07-10T03:19:52.710Z,88.21
2016-07-10T03:20:52.700Z,88.31
2016-07-10T03:21:52.687Z,88.4
2016-07-10T03:22:52.678Z,88.11
2016-07-10T03:23:52.666Z,87.73
2016-07-10T03:24:52.656Z,88.21
2016-07-10T03:25:53.259Z,88.4
2016-07-10T03:26:52.639Z,88.31
2016-07-10T03:27:52.629Z,88.31
2016-07-10T03:28:52.620Z,88.59
2016-07-10T03:29:52.606Z,88.59
2016-07-10T03:30:52.599Z,88.31
2016-07-10T03:31:52.590Z,88.49
2016-07-10T03:32:52.578Z,88.98
2016-07-10T03:33:52.566Z,88.79
2016-07-10T03:34:53.167Z,88.69
2016-07-10T03:35:52.551Z,88.79
2016-07-10T03:36:52.536Z,88.98
2016-07-10T03:37:52.578Z,88.98
2016-07-10T03:38:52.517Z,88.79
2016-07-10T03:39:52.508Z,88.79
2016-07-10T03:40:53.107Z,88.59
2016-07-10T03:41:52.490Z,89.07
2016-07-10T03:42:53.092Z,88.88
2016-07-10T03:43:52.468Z,88.59
2016-07-10T03:44:52.456Z,88.79
2016-07-10T03:45:52.447Z,88.79
2016-07-10T03:46:52.438Z,89.36
2016-07-10T03:47:52.424Z,88.59
2016-07-10T03:48:52.420Z,88.79
2016-07-10T03:49:52.406Z,88.59
2016-07-10T03:50:53.010Z,88.88
2016-07-10T03:51:52.383Z,88.88
2016-07-10T03:52:52.373Z,88.79
2016-07-10T03:53:52.978Z,89.17
2016-07-10T03:54:52.355Z,89.46
2016-07-10T03:55:53.007Z,89.36
2016-07-10T03:56:52.334Z,89.17
2016-07-10T03:57:52.938Z,88.98
2016-07-10T03:58:52.312Z,89.36
2016-07-10T03:59:52.301Z,89.26
2016-07-10T04:00:52.913Z,89.07
2016-07-10T04:01:52.288Z,89.17
2016-07-10T04:02:52.271Z,89.46
2016-07-10T04:03:52.263Z,89.07
2016-07-10T04:04:52.254Z,89.26
2016-07-10T04:05:52.248Z,89.26
2016-07-10T04:06:52.230Z,89.26
2016-07-10T04:07:52.830Z,89.07
2016-07-10T04:08:52.212Z,89.26
2016-07-10T04:09:52.202Z,89.07
2016-07-10T04:10:52.187Z,89.26
2016-07-10T04:11:52.178Z,89.26
2016-07-10T04:12:52.171Z,89.36
2016-07-10T04:13:52.773Z,89.36
2016-07-10T04:14:52.154Z,89.36
2016-07-10T04:15:52.751Z,89.07
2016-07-10T04:16:52.177Z,89.17
2016-07-10T04:17:52.116Z,88.88
2016-07-10T04:18:52.107Z,89.17
2016-07-10T04:19:52.100Z,89.07
2016-07-10T04:20:52.088Z,89.17
2016-07-10T04:21:52.893Z,89.36
2016-07-10T04:22:52.067Z,88.98
2016-07-10T04:23:52.057Z,89.17
2016-07-10T04:24:52.047Z,89.17
2016-07-10T04:25:52.650Z,89.36
2016-07-10T04:26:52.029Z,89.26
2016-07-10T04:27:52.629Z,89.94
2016-07-10T04:28:52.006Z,89.55
2016-07-10T04:29:51.997Z,89.46
2016-07-10T04:30:51.985Z,89.36
2016-07-10T04:31:51.977Z,89.75
2016-07-10T04:32:51.967Z,89.65
2016-07-10T04:33:51.961Z,89.55
2016-07-10T04:34:51.945Z,89.36
2016-07-10T04:35:51.931Z,89.65
2016-07-10T04:36:51.923Z,89.55
2016-07-10T04:37:51.920Z,89.65
2016-07-10T04:38:51.906Z,89.65
2016-07-10T04:39:51.893Z,89.31
2016-07-10T04:40:51.885Z,89.4
2016-07-10T04:41:51.876Z,89.22
2016-07-10T04:42:51.867Z,89.69
2016-07-10T04:43:51.865Z,89.22
2016-07-10T04:44:51.851Z,89.02
2016-07-10T04:45:51.838Z,89.22
2016-07-10T04:46:51.828Z,89.31
2016-07-10T04:47:51.817Z,89.4
2016-07-10T04:48:51.806Z,89.22
2016-07-10T04:49:51.796Z,89.6
2016-07-10T04:50:51.783Z,89.4
2016-07-10T04:51:51.778Z,89.4
2016-07-10T04:52:52.374Z,89.5
2016-07-10T04:53:51.755Z,89.12
2016-07-10T04:54:51.745Z,89.12
2016-07-10T04:55:52.346Z,89.4
2016-07-10T04:56:51.726Z,89.12
2016-07-10T04:57:51.720Z,89.4
2016-07-10T04:58:51.706Z,89.22
2016-07-10T04:59:51.703Z,89.4
2016-07-10T05:00:51.688Z,89.31
2016-07-10T05:01:52.291Z,89.12
2016-07-10T05:02:51.668Z,89.31
2016-07-10T05:03:51.655Z,89.12
2016-07-10T05:04:51.647Z,89.16
2016-07-10T05:05:51.641Z,89.26
2016-07-10T05:06:52.243Z,89.07
2016-07-10T05:07:51.619Z,89.45
2016-07-10T05:08:52.271Z,89.89
2016-07-10T05:09:51.603Z,89.74
2016-07-10T05:10:51.590Z,89.22
2016-07-10T05:11:51.577Z,89.07
2016-07-10T05:12:51.571Z,89.36
2016-07-10T05:13:51.560Z,88.97
2016-07-10T05:14:51.552Z,88.87
2016-07-10T05:15:51.546Z,89.07
2016-07-10T05:16:52.142Z,89.26
2016-07-10T05:17:51.525Z,89.16
2016-07-10T05:18:51.515Z,89.16
2016-07-10T05:19:51.506Z,88.97
2016-07-10T05:20:51.495Z,88.87
2016-07-10T05:21:51.488Z,88.97
2016-07-10T05:22:51.475Z,88.87
2016-07-10T05:23:52.078Z,88.68
2016-07-10T05:24:52.068Z,88.68
2016-07-10T05:25:51.449Z,88.87
2016-07-10T05:26:51.438Z,88.78
2016-07-10T05:27:51.425Z,88.78
2016-07-10T05:28:51.419Z,88.44
2016-07-10T05:29:51.406Z,88.44
2016-07-10T05:30:51.396Z,87.67
2016-07-10T05:31:51.386Z,87.86
2016-07-10T05:32:51.992Z,87.48
2016-07-10T05:33:51.367Z,87.19
2016-07-10T05:34:51.359Z,87.76
2016-07-10T05:35:51.348Z,87.38
2016-07-10T05:36:51.353Z,87.19
2016-07-10T05:37:51.945Z,87.38
2016-07-10T05:38:51.321Z,87.19
2016-07-10T05:39:51.313Z,87.67
2016-07-10T05:40:51.305Z,86.94
2016-07-10T05:41:51.293Z,86.94
2016-07-10T05:42:51.283Z,86.65
2016-07-10T05:43:51.276Z,86.46
2016-07-10T05:44:51.264Z,86.56
2016-07-10T05:45:51.260Z,86.75
2016-07-10T05:46:51.245Z,86.85
2016-07-10T05:47:51.246Z,86.46
2016-07-10T05:48:51.226Z,86.36
2016-07-10T05:49:51.219Z,86.65
2016-07-10T05:50:51.211Z,85.98
2016-07-10T05:51:51.199Z,86.02
2016-07-10T05:52:51.191Z,85.98
2016-07-10T05:53:51.182Z,85.88
2016-07-10T05:54:51.175Z,86.02
2016-07-10T05:55:51.163Z,86.12
2016-07-10T05:56:51.151Z,86.12
2016-07-10T05:57:51.143Z,85.64
2016-07-10T05:58:51.134Z,85.74
2016-07-10T05:59:51.126Z,85.54
2016-07-10T06:00:51.117Z,85.44
2016-07-10T06:01:51.116Z,85.44
2016-07-10T06:02:51.099Z,85.64
2016-07-10T06:03:51.090Z,85.74
2016-07-10T06:04:51.078Z,85.35
2016-07-10T06:05:51.071Z,85.16
2016-07-10T06:06:51.674Z,84.91
2016-07-10T06:07:51.100Z,85.2
2016-07-10T06:08:51.041Z,85
2016-07-10T06:09:51.035Z,85
2016-07-10T06:10:51.073Z,83.95
2016-07-10T06:11:51.633Z,84.62
2016-07-10T06:12:51.006Z,84.14
2016-07-10T06:13:50.999Z,83.95
2016-07-10T06:14:50.990Z,84.81
2016-07-10T06:15:50.991Z,84.33
2016-07-10T06:16:50.971Z,84.33
2016-07-10T06:17:51.010Z,84.47
2016-07-10T06:18:50.953Z,83.31
2016-07-10T06:19:50.946Z,83.45
2016-07-10T06:20:50.935Z,82.39
2016-07-10T06:21:51.329Z,81.27
2016-07-10T06:22:50.920Z,81.09
2016-07-10T06:23:50.966Z,81.18
2016-07-10T06:24:50.904Z,81.27
2016-07-10T06:25:50.893Z,81.43
2016-07-10T06:26:50.891Z,81.43
2016-07-10T06:27:50.876Z,81.62
2016-07-10T06:28:50.869Z,81.52
2016-07-10T06:29:50.859Z,81.91
2016-07-10T06:30:50.853Z,81.52
2016-07-10T06:31:50.855Z,82.14
2016-07-10T06:32:50.839Z,80.99
2016-07-10T06:33:50.833Z,80.79
2016-07-10T06:34:50.822Z,80.31
2016-07-10T06:35:51.423Z,80.41
2016-07-10T06:36:50.802Z,80.89
2016-07-10T06:37:50.791Z,80.06
2016-07-10T06:38:50.784Z,80.35
2016-07-10T06:39:50.826Z,80.45
2016-07-10T06:40:50.767Z,80.35
2016-07-10T06:41:50.760Z,79.49
2016-07-10T06:42:50.753Z,79.58
2016-07-10T06:43:51.359Z,79.81
2016-07-10T06:44:50.734Z,79.04
2016-07-10T06:45:51.342Z,78.75
2016-07-10T06:46:50.715Z,78.36
2016-07-10T06:47:50.711Z,78.75
2016-07-10T06:48:51.318Z,78.66
2016-07-10T06:49:50.696Z,78.36
2016-07-10T06:50:51.299Z,78.56
2016-07-10T06:51:50.689Z,78.85
2016-07-10T06:52:50.672Z,78.75
2016-07-10T06:53:51.272Z,78.27
2016-07-10T06:54:50.659Z,77.98
2016-07-10T06:55:50.647Z,77.98
2016-07-10T06:56:50.637Z,78.56
2016-07-10T06:57:50.631Z,77.69
2016-07-10T06:58:50.623Z,77.53
2016-07-10T06:59:51.225Z,76.95
2016-07-10T07:00:51.223Z,78.02
2016-07-10T07:01:51.212Z,78.02
2016-07-10T07:02:50.598Z,77.53
2016-07-10T07:03:50.586Z,76.9
2016-07-10T07:04:50.577Z,75.93
2016-07-10T07:05:50.567Z,75.74
2016-07-10T07:06:50.558Z,76.42
2016-07-10T07:07:50.559Z,76.03
2016-07-10T07:08:50.545Z,76.22
2016-07-10T07:09:50.535Z,75.93
2016-07-10T07:10:50.530Z,75.93
2016-07-10T07:11:50.522Z,74
2016-07-10T07:12:50.511Z,72.94
2016-07-10T07:13:50.506Z,73.13
2016-07-10T07:14:50.498Z,73.36
2016-07-10T07:15:50.494Z,73.13
2016-07-10T07:16:50.486Z,73.32
2016-07-10T07:17:50.478Z,73.46
2016-07-10T07:18:51.085Z,73.36
2016-07-10T07:19:50.462Z,73.16
2016-07-10T07:20:50.457Z,74.13
2016-07-10T07:21:50.452Z,74.23
2016-07-10T07:22:50.444Z,74.42
2016-07-10T07:23:50.436Z,74.42
2016-07-10T07:24:50.432Z,74.13
2016-07-10T07:25:51.035Z,73.94
2016-07-10T07:26:50.421Z,74.9
2016-07-10T07:27:50.412Z,74.17
2016-07-10T07:28:50.407Z,73.97
2016-07-10T07:29:50.403Z,73.49
2016-07-10T07:30:50.393Z,74.07
2016-07-10T07:31:51.001Z,73.2
2016-07-10T07:32:50.384Z,72.81
2016-07-10T07:33:50.375Z,72.72
2016-07-10T07:34:50.372Z,72.14
2016-07-10T07:35:50.363Z,71.94
2016-07-10T07:36:50.358Z,70.62
2016-07-10T07:37:50.361Z,67.34
2016-07-10T07:38:50.352Z,66.14
2016-07-10T07:39:50.343Z,64.85
2016-07-10T07:40:50.336Z,62.68
2016-07-10T07:41:50.334Z,61.35
2016-07-10T07:42:50.331Z,61.67
2016-07-10T07:43:50.936Z,60.72
2016-07-10T07:44:50.375Z,61.24
2016-07-10T07:45:50.318Z,59.42
2016-07-10T07:46:50.928Z,58.77
2016-07-10T07:47:50.314Z,57.04
2016-07-10T07:48:50.308Z,56.16
2016-07-10T07:49:50.353Z,53.39
2016-07-10T07:50:50.301Z,53.88
2016-07-10T07:51:50.299Z,53.81
2016-07-10T07:52:50.295Z,50.44
2016-07-10T07:53:50.293Z,48.8
2016-07-10T07:54:50.291Z,46.75
2016-07-10T07:55:50.297Z,47.43
2016-07-10T07:56:50.294Z,47.92
2016-07-10T07:57:50.288Z,48.68
2016-07-10T07:58:50.897Z,46.72
2016-07-10T07:59:50.288Z,46.92
2016-07-10T08:00:50.282Z,45.86
2016-07-10T08:01:50.281Z,46.65
2016-07-10T08:02:50.287Z,46.36
2016-07-10T08:03:50.892Z,46.26
2016-07-10T08:04:50.890Z,45.76
2016-07-10T08:05:50.278Z,44.81
2016-07-10T08:06:50.282Z,44.81
2016-07-10T08:07:50.277Z,45.79
2016-07-10T08:08:50.274Z,45.5
2016-07-10T08:09:50.275Z,44.81
2016-07-10T08:10:50.898Z,43.07
2016-07-10T08:11:50.273Z,42.9
2016-07-10T08:12:50.889Z,42.8
2016-07-10T08:13:50.273Z,43.02
2016-07-10T08:14:50.885Z,43.09
2016-07-10T08:15:50.274Z,42.8
2016-07-10T08:16:50.274Z,42.43
2016-07-10T08:17:50.275Z,41.15
2016-07-10T08:18:50.281Z,40.27
2016-07-10T08:19:50.274Z,40.56
2016-07-10T08:20:50.275Z,40.86
2016-07-10T08:21:50.278Z,40.95
2016-07-10T08:22:50.895Z,41.08
2016-07-10T08:23:50.889Z,40.48
2016-07-10T08:24:50.285Z,41.47
2016-07-10T08:25:50.888Z,40.9
2016-07-10T08:26:50.281Z,40.33
2016-07-10T08:27:50.287Z,39.66
2016-07-10T08:28:50.282Z,39.56
2016-07-10T08:29:50.284Z,38.8
2016-07-10T08:30:50.285Z,39.72
2016-07-10T08:31:50.288Z,39.92
2016-07-10T08:32:50.285Z,40.01
2016-07-10T08:33:50.287Z,38.19
2016-07-10T08:34:50.288Z,38.88
2016-07-10T08:35:50.291Z,38.37
2016-07-10T08:36:50.290Z,38.56
2016-07-10T08:37:50.290Z,39.35
2016-07-10T08:38:50.295Z,39.35
2016-07-10T08:39:50.297Z,38.39
2016-07-10T08:40:50.299Z,39.66
2016-07-10T08:41:50.297Z,39.39
2016-07-10T08:42:50.301Z,39.19
2016-07-10T08:43:50.913Z,38.13
2016-07-10T08:44:50.301Z,38.72
2016-07-10T08:45:50.306Z,38.01
2016-07-10T08:46:50.307Z,38.88
2016-07-10T08:47:50.306Z,40.55
2016-07-10T08:48:50.921Z,39.35
2016-07-10T08:49:50.309Z,40.8
2016-07-10T08:50:50.931Z,39.53
2016-07-10T08:51:50.310Z,39.15
2016-07-10T08:52:50.313Z,38.84
2016-07-10T08:53:50.314Z,39.41
2016-07-10T08:54:50.925Z,41.25
2016-07-10T08:55:50.312Z,43.66
2016-07-10T08:56:50.316Z,45.08
2016-07-10T08:57:50.318Z,45.26
2016-07-10T08:58:50.314Z,45.26
2016-07-10T08:59:50.324Z,44.67
2016-07-10T09:00:50.314Z,45.62
2016-07-10T09:01:50.925Z,46.01
2016-07-10T09:02:50.923Z,46.48
2016-07-10T09:03:50.312Z,46.68
2016-07-10T09:04:50.936Z,47.63
2016-07-10T09:05:50.309Z,47.8
2016-07-10T09:06:50.926Z,48.58
2016-07-10T09:07:50.306Z,50.31
2016-07-10T09:08:50.306Z,49.02
2016-07-10T09:09:50.303Z,49.51
2016-07-10T09:10:50.301Z,51.26
2016-07-10T09:11:50.303Z,51.75
2016-07-10T09:12:50.302Z,51.24
2016-07-10T09:13:50.299Z,51.17
2016-07-10T09:14:50.299Z,49.99
2016-07-10T09:15:50.299Z,50.51
2016-07-10T09:16:50.913Z,49.15
2016-07-10T09:17:50.296Z,47.41
2016-07-10T09:18:50.296Z,47.05
2016-07-10T09:19:50.298Z,46.09
2016-07-10T09:20:50.299Z,45.72
2016-07-10T09:21:50.299Z,44.77
2016-07-10T09:22:50.299Z,44.69
2016-07-10T09:23:50.301Z,45.16
2016-07-10T09:24:50.915Z,44.69
2016-07-10T09:25:50.299Z,44.89
2016-07-10T09:26:50.910Z,44.2
2016-07-10T09:27:50.306Z,43.73
2016-07-10T09:28:50.301Z,43.73
2016-07-10T09:29:50.302Z,43.73
2016-07-10T09:30:50.305Z,43.56
2016-07-10T09:31:50.309Z,43.56
2016-07-10T09:32:50.307Z,44.13
2016-07-10T09:33:50.312Z,43.54
2016-07-10T09:34:50.927Z,41.78
2016-07-10T09:35:50.923Z,42.38
2016-07-10T09:36:50.312Z,42.48
2016-07-10T09:37:50.312Z,42.58
2016-07-10T09:38:50.313Z,42.21
2016-07-10T09:39:50.317Z,41.66
2016-07-10T09:40:50.316Z,40.29
2016-07-10T09:41:50.341Z,39.8
2016-07-10T09:42:51.388Z,40.41
2016-07-10T09:43:50.943Z,41.66
2016-07-10T09:44:50.329Z,41.35
2016-07-10T09:45:50.328Z,42.41
2016-07-10T09:46:50.330Z,44.23
2016-07-10T09:47:50.319Z,43.93
2016-07-10T09:48:50.318Z,43.81
2016-07-10T09:49:50.322Z,45.65
2016-07-10T09:50:50.930Z,45.75
2016-07-10T09:51:50.323Z,45.06
2016-07-10T09:52:50.938Z,44.3
2016-07-10T09:53:50.323Z,42.76
2016-07-10T09:54:50.327Z,43.56
2016-07-10T09:55:50.323Z,42.36
2016-07-10T09:56:50.327Z,42.48
2016-07-10T09:57:50.329Z,41.8
2016-07-10T09:58:50.943Z,42.68
2016-07-10T09:59:50.333Z,42.5
2016-07-10T10:00:50.333Z,41.52
2016-07-10T10:01:50.330Z,42.31
2016-07-10T10:02:50.336Z,42.31
2016-07-10T10:03:50.335Z,42.43
2016-07-10T10:04:50.336Z,41.52
2016-07-10T10:05:50.957Z,41.52
2016-07-10T10:06:50.342Z,41.23
2016-07-10T10:07:50.344Z,40.94
2016-07-10T10:08:50.349Z,41.55
2016-07-10T10:09:50.356Z,40.47
2016-07-10T10:10:50.969Z,41.37
2016-07-10T10:11:50.357Z,39.92
2016-07-10T10:12:50.362Z,41.39
2016-07-10T10:13:50.972Z,41.27
2016-07-10T10:14:50.362Z,40.01
2016-07-10T10:15:50.364Z,41.49
2016-07-10T10:16:50.368Z,40.95
2016-07-10T10:17:50.417Z,42.48
2016-07-10T10:18:50.943Z,42.46
2016-07-10T10:19:50.387Z,42.46
2016-07-10T10:20:50.378Z,42.21
2016-07-10T10:21:50.386Z,42.33
2016-07-10T10:22:50.579Z,42.03
2016-07-10T10:23:50.382Z,41.62
2016-07-10T10:24:50.383Z,43.56
2016-07-10T10:25:50.388Z,43.49
2016-07-10T10:26:50.384Z,44.87
2016-07-10T10:27:50.388Z,43.79
2016-07-10T10:28:50.393Z,43.62
2016-07-10T10:29:50.391Z,43.62
2016-07-10T10:30:50.393Z,44.18
2016-07-10T10:31:50.393Z,44.94
2016-07-10T10:32:50.401Z,44.67
2016-07-10T10:33:50.406Z,47.67
2016-07-10T10:34:51.011Z,45.41
2016-07-10T10:35:50.402Z,46.19
2016-07-10T10:36:50.403Z,45.62
2016-07-10T10:37:50.399Z,45.76
2016-07-10T10:38:50.416Z,46.67
2016-07-10T10:39:51.015Z,43.17
2016-07-10T10:40:50.408Z,42.41
2016-07-10T10:41:50.407Z,43.09
2016-07-10T10:42:50.407Z,42.41
2016-07-10T10:43:50.406Z,42.31
2016-07-10T10:44:50.412Z,42.43
2016-07-10T10:45:50.413Z,42.6
2016-07-10T10:46:50.411Z,42.76
2016-07-10T10:47:51.027Z,43.84
2016-07-10T10:48:50.420Z,45.08
2016-07-10T10:49:50.416Z,44.59
2016-07-10T10:50:50.418Z,44.93
2016-07-10T10:51:50.416Z,43.68
2016-07-10T10:52:51.031Z,42.99
2016-07-10T10:53:50.419Z,43.77
2016-07-10T10:54:50.424Z,42.6
2016-07-10T10:55:50.426Z,41.42
2016-07-10T10:56:50.424Z,43.19
2016-07-10T10:57:50.429Z,43.85
2016-07-10T10:58:50.437Z,43.98
2016-07-10T10:59:50.430Z,43.58
2016-07-10T11:00:50.436Z,42.7
2016-07-10T11:01:50.440Z,42.48
2016-07-10T11:02:50.437Z,41.41
2016-07-10T11:03:51.051Z,42.76
2016-07-10T11:04:50.443Z,42.7
2016-07-10T11:05:50.442Z,42.9
2016-07-10T11:06:50.444Z,41.84
2016-07-10T11:07:50.442Z,41.86
2016-07-10T11:08:50.454Z,41.64
2016-07-10T11:09:50.446Z,42.7
2016-07-10T11:10:50.452Z,42.8
2016-07-10T11:11:51.066Z,41.35
2016-07-10T11:12:51.066Z,41.35
2016-07-10T11:13:50.456Z,41.09
2016-07-10T11:14:50.464Z,41.76
2016-07-10T11:15:51.075Z,43.31
2016-07-10T11:16:51.077Z,43.12
2016-07-10T11:17:51.080Z,42.72
2016-07-10T11:18:50.469Z,44.09
2016-07-10T11:19:50.472Z,42.72
2016-07-10T11:20:50.475Z,43.19
2016-07-10T11:21:50.472Z,43.46
2016-07-10T11:22:51.090Z,43.73
2016-07-10T11:23:50.478Z,44.13
2016-07-10T11:24:50.476Z,44.1
2016-07-10T11:25:50.485Z,45.37
2016-07-10T11:26:51.096Z,46.16
2016-07-10T11:27:51.094Z,45.06
2016-07-10T11:28:50.482Z,45.36
2016-07-10T11:29:50.480Z,45.06
2016-07-10T11:30:50.480Z,45.75
2016-07-10T11:31:50.485Z,45.75
2016-07-10T11:32:51.102Z,45.33
2016-07-10T11:33:50.481Z,46.6
2016-07-10T11:34:50.482Z,46.68
2016-07-10T11:35:51.090Z,46.88
2016-07-10T11:36:50.484Z,46.78
2016-07-10T11:37:50.481Z,47.21
2016-07-10T11:38:50.484Z,45.76
2016-07-10T11:39:50.478Z,46.16
2016-07-10T11:40:50.481Z,45.3
2016-07-10T11:41:50.483Z,44.54
2016-07-10T11:42:51.093Z,43.09
2016-07-10T11:43:50.484Z,43.77
2016-07-10T11:44:50.482Z,42.43
2016-07-10T11:45:50.482Z,42.72
2016-07-10T11:46:50.487Z,43.77
2016-07-10T11:47:50.493Z,44.93
2016-07-10T11:48:50.486Z,43.85
2016-07-10T11:49:50.487Z,43.95
2016-07-10T11:50:50.488Z,43.68
2016-07-10T11:51:50.492Z,44.76
2016-07-10T11:52:50.491Z,43.68
2016-07-10T11:53:50.499Z,43.6
2016-07-10T11:54:50.496Z,43.6
2016-07-10T11:55:50.494Z,41.39
2016-07-10T11:56:51.114Z,41.61
2016-07-10T11:57:51.109Z,40.92
2016-07-10T11:58:50.503Z,41.49
2016-07-10T11:59:50.502Z,41.76
2016-07-10T12:00:50.503Z,41.66
2016-07-10T12:01:50.505Z,41.76
2016-07-10T12:02:50.511Z,41.29
2016-07-10T12:03:50.509Z,41.88
2016-07-10T12:04:50.513Z,42.74
2016-07-10T12:05:50.517Z,41.64
2016-07-10T12:06:51.126Z,41.05
2016-07-10T12:07:50.521Z,41.15
2016-07-10T12:08:50.519Z,41.37
2016-07-10T12:09:50.520Z,41.27
2016-07-10T12:10:50.526Z,41.86
2016-07-10T12:11:50.526Z,39.9
2016-07-10T12:12:50.526Z,40.68
2016-07-10T12:13:51.149Z,41.09
2016-07-10T12:14:50.540Z,40.03
2016-07-10T12:15:50.533Z,40.43
2016-07-10T12:16:50.538Z,40.33
2016-07-10T12:17:50.547Z,40.23
2016-07-10T12:18:50.539Z,39.84
2016-07-10T12:19:50.545Z,39.94
2016-07-10T12:20:50.546Z,40.33
2016-07-10T12:21:50.558Z,39.17
2016-07-10T12:22:50.755Z,39
2016-07-10T12:23:50.553Z,39.39
2016-07-10T12:24:50.559Z,39.88
2016-07-10T12:25:50.560Z,39.98
2016-07-10T12:26:50.564Z,39.11
2016-07-10T12:27:51.180Z,37.26
2016-07-10T12:28:50.573Z,36.47
2016-07-10T12:29:50.575Z,36.57
2016-07-10T12:30:50.577Z,37.65
2016-07-10T12:31:51.197Z,37.65
2016-07-10T12:32:50.585Z,36.3
2016-07-10T12:33:50.588Z,37.28
2016-07-10T12:34:50.596Z,37.26
2016-07-10T12:35:51.211Z,36.08
2016-07-10T12:36:50.604Z,36.1
2016-07-10T12:37:50.605Z,36.47
2016-07-10T12:38:50.608Z,38.15
2016-07-10T12:39:50.613Z,38.11
2016-07-10T12:40:51.238Z,37.15
2016-07-10T12:41:51.232Z,38.5
2016-07-10T12:42:50.625Z,37.54
2016-07-10T12:43:51.251Z,37.15
2016-07-10T12:44:50.634Z,35.99
2016-07-10T12:45:50.639Z,36.36
2016-07-10T12:46:51.255Z,38.11
2016-07-10T12:47:50.648Z,36.97
2016-07-10T12:48:50.657Z,35.61
2016-07-10T12:49:50.661Z,36.1
2016-07-10T12:50:50.662Z,35.71
2016-07-10T12:51:51.278Z,35.51
2016-07-10T12:52:51.290Z,35.88
2016-07-10T12:53:51.292Z,34.31
2016-07-10T12:54:50.681Z,35.69